createdAt,value
2022-11-12T00:01:44.612Z,8.50
2022-11-12T00:04:11.561Z,8.50
2022-11-12T00:06:39.870Z,8.50
2022-11-12T00:09:06.675Z,8.50
2022-11-12T00:11:33.512Z,8.50
2022-11-12T00:14:00.323Z,8.50
2022-11-12T00:16:27.218Z,8.50
2022-11-12T00:18:54.003Z,8.50
2022-11-12T00:21:20.866Z,8.50
2022-11-12T00:23:49.033Z,8.40
2022-11-12T00:26:15.889Z,8.40
2022-11-12T00:28:42.660Z,8.40
2022-11-12T00:31:10.915Z,8.40
2022-11-12T00:33:40.936Z,8.40
2022-11-12T00:36:08.814Z,8.40
2022-11-12T00:38:35.650Z,8.40
2022-11-12T00:41:03.944Z,8.40
2022-11-12T00:43:30.792Z,8.40
2022-11-12T00:45:57.603Z,8.40
2022-11-12T00:48:24.805Z,8.40
2022-11-12T00:50:51.789Z,8.30
2022-11-12T00:53:18.595Z,8.30
2022-11-12T00:55:45.377Z,8.40
2022-11-12T00:58:13.523Z,8.30
2022-11-12T01:00:40.681Z,8.30
2022-11-12T01:03:07.466Z,8.30
2022-11-12T01:05:34.741Z,8.20
2022-11-12T01:08:01.618Z,8.20
2022-11-12T01:10:28.420Z,8.20
2022-11-12T01:12:55.501Z,8.20
2022-11-12T01:15:23.646Z,8.20
2022-11-12T01:17:50.382Z,8.20
2022-11-12T01:20:17.411Z,8.20
2022-11-12T01:22:44.260Z,8.10
2022-11-12T01:25:11.075Z,8.10
2022-11-12T01:27:37.976Z,8.10
2022-11-12T01:30:05.759Z,8.10
2022-11-12T01:32:36.978Z,8.10
2022-11-12T01:35:04.124Z,8.00
2022-11-12T01:37:30.969Z,8.00
2022-11-12T01:39:57.781Z,8.00
2022-11-12T01:42:28.219Z,8.00
2022-11-12T01:44:55.268Z,8.00
2022-11-12T01:47:25.219Z,8.00
2022-11-12T01:49:58.515Z,8.00
2022-11-12T01:52:30.193Z,7.90
2022-11-12T01:55:07.021Z,7.90
2022-11-12T01:57:40.720Z,8.00
2022-11-12T02:00:10.995Z,8.00
2022-11-12T02:02:38.167Z,8.00
2022-11-12T02:05:09.932Z,8.00
2022-11-12T02:07:39.533Z,7.90
2022-11-12T02:10:08.725Z,7.90
2022-11-12T02:12:55.029Z,8.00
2022-11-12T02:15:22.094Z,8.00
2022-11-12T02:17:48.965Z,7.90
2022-11-12T02:20:17.582Z,8.00
2022-11-12T02:22:45.740Z,8.00
2022-11-12T02:25:16.890Z,8.00
2022-11-12T02:27:44.437Z,8.00
2022-11-12T02:30:12.148Z,8.00
2022-11-12T02:32:38.918Z,8.00
2022-11-12T02:35:06.666Z,8.00
2022-11-12T02:37:33.487Z,8.00
2022-11-12T02:40:01.642Z,8.00
2022-11-12T02:42:28.415Z,8.00
2022-11-12T02:44:55.311Z,7.90
2022-11-12T02:47:22.126Z,7.90
2022-11-12T02:49:48.940Z,7.90
2022-11-12T02:52:15.718Z,7.90
2022-11-12T02:54:42.536Z,7.90
2022-11-12T02:57:10.844Z,7.90
2022-11-12T02:59:37.676Z,7.80
2022-11-12T03:02:04.443Z,7.80
2022-11-12T03:04:31.238Z,7.80
2022-11-12T03:06:58.094Z,7.80
2022-11-12T03:09:24.971Z,7.80
2022-11-12T03:11:51.782Z,7.80
2022-11-12T03:14:20.108Z,7.80
2022-11-12T03:16:47.088Z,7.80
2022-11-12T03:19:13.851Z,7.80
2022-11-12T03:21:40.731Z,7.80
2022-11-12T03:24:07.731Z,7.80
2022-11-12T03:26:36.016Z,7.80
2022-11-12T03:29:03.109Z,7.80
2022-11-12T03:31:31.286Z,7.80
2022-11-12T03:33:58.077Z,7.90
2022-11-12T03:36:24.911Z,7.90
2022-11-12T03:38:51.760Z,7.90
2022-11-12T03:41:18.579Z,7.90
2022-11-12T03:43:45.398Z,7.90
2022-11-12T03:46:12.214Z,7.80
2022-11-12T03:48:40.357Z,7.80
2022-11-12T03:51:07.197Z,7.80
2022-11-12T03:53:33.974Z,7.80
2022-11-12T03:56:00.792Z,7.80
2022-11-12T03:58:27.926Z,7.80
2022-11-12T04:00:55.013Z,7.80
2022-11-12T04:03:21.906Z,7.80
2022-11-12T04:06:08.869Z,7.80
2022-11-12T04:08:38.581Z,7.80
2022-11-12T04:11:07.884Z,7.80
2022-11-12T04:13:34.976Z,7.80
2022-11-12T04:16:22.760Z,7.80
2022-11-12T04:19:09.854Z,7.80
2022-11-12T04:21:51.408Z,7.90
2022-11-12T04:24:39.018Z,7.80
2022-11-12T04:27:06.648Z,7.80
2022-11-12T04:29:52.147Z,7.90
2022-11-12T04:32:19.233Z,7.90
2022-11-12T04:34:46.186Z,7.90
2022-11-12T04:37:14.434Z,7.90
2022-11-12T04:39:41.259Z,8.00
2022-11-12T04:42:27.460Z,8.00
2022-11-12T04:44:56.964Z,8.00
2022-11-12T04:47:23.773Z,7.90
2022-11-12T04:49:50.527Z,8.10
2022-11-12T04:52:18.895Z,8.10
2022-11-12T04:54:46.092Z,8.20
2022-11-12T04:57:12.867Z,8.20
2022-11-12T04:59:39.721Z,8.20
2022-11-12T05:02:06.559Z,8.20
2022-11-12T05:04:33.409Z,8.20
2022-11-12T05:07:00.680Z,8.20
2022-11-12T05:09:29.829Z,8.20
2022-11-12T05:11:57.346Z,8.20
2022-11-12T05:14:24.857Z,8.30
2022-11-12T05:16:52.284Z,8.30
2022-11-12T05:19:19.566Z,8.30
2022-11-12T05:22:04.760Z,8.30
2022-11-12T05:24:41.930Z,8.30
2022-11-12T05:27:11.539Z,8.30
2022-11-12T05:29:38.417Z,8.30
2022-11-12T05:32:06.492Z,8.30
2022-11-12T05:34:33.500Z,8.30
2022-11-12T05:37:01.531Z,8.30
2022-11-12T05:39:28.327Z,8.30
2022-11-12T05:42:12.373Z,8.30
2022-11-12T05:44:39.584Z,8.30
2022-11-12T05:47:06.395Z,8.40
2022-11-12T05:49:33.181Z,8.40
2022-11-12T05:51:59.990Z,8.40
2022-11-12T05:54:26.848Z,8.40
2022-11-12T05:56:53.809Z,8.30
2022-11-12T05:59:22.320Z,8.30
2022-11-12T06:01:49.221Z,8.30
2022-11-12T06:04:16.940Z,8.30
2022-11-12T06:06:44.711Z,8.30
2022-11-12T06:09:11.631Z,8.30
2022-11-12T06:11:38.799Z,8.30
2022-11-12T06:14:06.017Z,8.30
2022-11-12T06:16:34.228Z,8.30
2022-11-12T06:19:01.021Z,8.20
2022-11-12T06:21:28.778Z,8.20
2022-11-12T06:23:58.006Z,8.20
2022-11-12T06:26:26.830Z,8.20
2022-11-12T06:28:53.823Z,8.30
2022-11-12T06:31:20.862Z,8.30
2022-11-12T06:33:49.367Z,8.20
2022-11-12T06:36:18.014Z,8.20
2022-11-12T06:38:45.371Z,8.20
2022-11-12T06:41:13.227Z,8.20
2022-11-12T06:43:41.195Z,8.20
2022-11-12T06:46:12.799Z,8.20
2022-11-12T06:48:39.955Z,8.10
2022-11-12T06:51:10.607Z,8.20
2022-11-12T06:53:37.407Z,8.20
2022-11-12T06:56:06.449Z,8.10
2022-11-12T06:58:33.613Z,8.10
2022-11-12T07:01:10.961Z,8.10
2022-11-12T07:03:38.733Z,8.10
2022-11-12T07:06:09.504Z,8.20
2022-11-12T07:08:36.414Z,8.20
2022-11-12T07:11:03.831Z,8.20
2022-11-12T07:13:31.743Z,8.20
2022-11-12T07:15:59.593Z,8.20
2022-11-12T07:18:27.348Z,8.20
2022-11-12T07:20:58.612Z,8.20
2022-11-12T07:23:27.682Z,8.20
2022-11-12T07:25:59.318Z,8.20
2022-11-12T07:28:26.908Z,8.30
2022-11-12T07:30:58.121Z,8.30
2022-11-12T07:33:25.289Z,8.40
2022-11-12T07:35:57.846Z,8.60
2022-11-12T07:38:26.461Z,8.70
2022-11-12T07:40:59.373Z,8.80
2022-11-12T07:43:26.309Z,8.80
2022-11-12T07:45:53.169Z,8.80
2022-11-12T07:48:19.962Z,8.80
2022-11-12T07:50:46.732Z,8.80
2022-11-12T07:53:13.505Z,8.80
2022-11-12T07:55:41.716Z,8.80
2022-11-12T07:58:08.619Z,8.80
2022-11-12T08:00:35.406Z,8.80
2022-11-12T08:03:02.240Z,8.80
2022-11-12T08:05:29.086Z,8.80
2022-11-12T08:07:57.065Z,8.80
2022-11-12T08:10:23.941Z,8.80
2022-11-12T08:12:55.589Z,8.90
2022-11-12T08:15:22.789Z,8.90
2022-11-12T08:17:49.674Z,8.90
2022-11-12T08:20:16.579Z,8.90
2022-11-12T08:22:48.021Z,8.90
2022-11-12T08:25:17.022Z,8.90
2022-11-12T08:27:44.011Z,9.00
2022-11-12T08:30:13.632Z,9.10
2022-11-12T08:32:43.504Z,9.10
2022-11-12T08:35:10.825Z,9.10
2022-11-12T08:37:37.671Z,9.00
2022-11-12T08:40:05.629Z,8.80
2022-11-12T08:42:32.436Z,8.70
2022-11-12T08:44:59.287Z,8.60
2022-11-12T08:47:27.658Z,8.50
2022-11-12T08:49:54.424Z,8.50
2022-11-12T08:52:21.208Z,8.40
2022-11-12T08:54:47.986Z,8.50
2022-11-12T08:57:14.841Z,8.50
2022-11-12T08:59:42.468Z,8.40
2022-11-12T09:02:13.235Z,8.50
2022-11-12T09:04:41.394Z,8.40
2022-11-12T09:07:09.616Z,8.40
2022-11-12T09:09:36.862Z,8.30
2022-11-12T09:12:09.709Z,8.30
2022-11-12T09:14:40.555Z,8.30
2022-11-12T09:17:07.652Z,8.40
2022-11-12T09:19:37.509Z,8.40
2022-11-12T09:22:08.767Z,8.40
2022-11-12T09:24:36.414Z,8.40
2022-11-12T09:27:06.349Z,8.40
2022-11-12T09:29:33.528Z,8.40
2022-11-12T09:32:00.570Z,8.50
2022-11-12T09:34:27.522Z,8.60
2022-11-12T09:36:55.581Z,8.60
2022-11-12T09:39:23.783Z,8.60
2022-11-12T09:41:50.581Z,8.60
2022-11-12T09:44:19.865Z,8.50
2022-11-12T09:46:51.883Z,8.50
2022-11-12T09:49:23.133Z,8.50
2022-11-12T09:51:53.759Z,8.60
2022-11-12T09:54:25.611Z,8.60
2022-11-12T09:56:54.029Z,8.50
2022-11-12T09:59:22.426Z,8.40
2022-11-12T10:02:00.164Z,8.30
2022-11-12T10:04:41.960Z,8.30
2022-11-12T10:07:16.863Z,8.30
2022-11-12T10:09:57.098Z,8.30
2022-11-12T10:12:32.582Z,8.30
2022-11-12T10:15:42.518Z,8.40
2022-11-12T10:18:15.803Z,8.50
2022-11-12T10:20:48.558Z,8.60
2022-11-12T10:23:19.383Z,8.70
2022-11-12T10:25:49.467Z,8.80
2022-11-12T10:28:25.771Z,8.80
2022-11-12T10:30:57.237Z,8.90
2022-11-12T10:33:24.118Z,9.00
2022-11-12T10:35:52.738Z,9.00
2022-11-12T10:38:27.708Z,9.00
2022-11-12T10:40:56.377Z,9.10
2022-11-12T10:43:24.910Z,9.10
2022-11-12T10:45:52.095Z,9.10
2022-11-12T10:48:27.229Z,9.10
2022-11-12T10:50:54.950Z,9.10
2022-11-12T10:53:35.970Z,9.00
2022-11-12T10:56:06.355Z,9.00
2022-11-12T10:58:34.433Z,8.90
2022-11-12T11:01:03.349Z,8.90
2022-11-12T11:03:34.090Z,8.80
2022-11-12T11:06:04.036Z,8.80
2022-11-12T11:08:37.706Z,8.80
2022-11-12T11:11:19.903Z,8.80
2022-11-12T11:13:52.767Z,8.80
2022-11-12T11:16:24.871Z,8.80
2022-11-12T11:18:54.943Z,8.90
2022-11-12T11:21:39.218Z,9.00
2022-11-12T11:24:25.519Z,9.00
2022-11-12T11:27:02.079Z,9.00
2022-11-12T11:29:41.964Z,9.10
2022-11-12T11:32:25.568Z,9.10
2022-11-12T11:35:01.175Z,9.10
2022-11-12T11:37:30.128Z,9.10
2022-11-12T11:40:06.642Z,9.10
2022-11-12T11:43:10.139Z,9.20
2022-11-12T11:45:55.236Z,9.20
2022-11-12T11:48:31.262Z,9.20
2022-11-12T11:51:02.681Z,9.20
2022-11-12T11:53:39.257Z,9.20
2022-11-12T11:56:14.892Z,9.20
2022-11-12T11:59:16.707Z,9.10
2022-11-12T12:02:00.750Z,9.20
2022-11-12T12:04:42.536Z,9.20
2022-11-12T12:07:20.889Z,9.20
2022-11-12T12:09:53.335Z,9.20
2022-11-12T12:12:35.314Z,9.20
2022-11-12T12:15:25.198Z,9.20
2022-11-12T12:18:03.986Z,9.30
2022-11-12T12:20:38.054Z,9.30
2022-11-12T12:23:12.663Z,9.30
2022-11-12T12:25:42.109Z,9.40
2022-11-12T12:28:16.635Z,9.40
2022-11-12T12:30:49.365Z,9.50
2022-11-12T12:33:27.928Z,9.50
2022-11-12T12:35:59.657Z,9.60
2022-11-12T12:38:32.669Z,9.60
2022-11-12T12:41:05.502Z,9.60
2022-11-12T12:43:36.374Z,9.60
2022-11-12T12:46:05.828Z,9.60
2022-11-12T12:48:35.090Z,9.70
2022-11-12T12:51:02.352Z,9.70
2022-11-12T12:53:34.331Z,9.80
2022-11-12T12:56:03.022Z,9.80
2022-11-12T12:58:31.706Z,9.80
2022-11-12T13:01:04.934Z,9.90
2022-11-12T13:04:03.310Z,9.80
2022-11-12T13:06:34.312Z,9.80
2022-11-12T13:09:04.359Z,9.80
2022-11-12T13:12:07.051Z,9.70
2022-11-12T13:15:13.186Z,9.70
2022-11-12T13:17:49.813Z,9.70
2022-11-12T13:20:32.497Z,9.70
2022-11-12T13:22:59.316Z,9.70
2022-11-12T13:25:28.569Z,9.60
2022-11-12T13:28:06.667Z,9.60
2022-11-12T13:30:56.071Z,9.60
2022-11-12T13:33:30.322Z,9.60
2022-11-12T13:36:24.285Z,9.60
2022-11-12T13:38:51.717Z,9.60
2022-11-12T13:41:42.212Z,9.60
2022-11-12T13:44:15.574Z,9.70
2022-11-12T13:46:44.767Z,9.80
2022-11-12T13:49:15.229Z,9.80
2022-11-12T13:51:45.111Z,9.90
2022-11-12T13:54:33.422Z,9.90
2022-11-12T13:57:31.037Z,9.90
2022-11-12T14:00:25.626Z,9.90
2022-11-12T14:02:55.302Z,9.90
2022-11-12T14:05:25.784Z,9.90
2022-11-12T14:08:07.776Z,9.90
2022-11-12T14:10:46.091Z,9.90
2022-11-12T14:13:35.743Z,9.90
2022-11-12T14:16:16.843Z,9.90
2022-11-12T14:19:10.421Z,9.80
2022-11-12T14:21:38.801Z,9.90
2022-11-12T14:24:09.623Z,9.80
2022-11-12T14:26:38.679Z,9.90
2022-11-12T14:29:06.245Z,9.90
2022-11-12T14:31:33.461Z,9.90
2022-11-12T14:34:21.312Z,9.80
2022-11-12T14:36:49.599Z,9.90
2022-11-12T14:39:16.600Z,9.80
2022-11-12T14:41:46.042Z,9.80
2022-11-12T14:44:19.109Z,9.80
2022-11-12T14:46:48.677Z,9.80
2022-11-12T14:49:20.933Z,9.80
2022-11-12T14:51:53.232Z,9.80
2022-11-12T14:54:27.136Z,9.90
2022-11-12T14:56:54.075Z,9.90
2022-11-12T14:59:21.019Z,9.90
2022-11-12T15:04:58.554Z,9.90
2022-11-12T15:07:29.236Z,9.90
2022-11-12T15:09:56.196Z,9.90
2022-11-12T15:12:25.577Z,9.90
2022-11-12T15:14:52.908Z,9.90
2022-11-12T15:17:30.997Z,9.90
2022-11-12T15:20:02.555Z,9.90
2022-11-12T15:22:32.364Z,9.80
2022-11-12T15:25:10.847Z,9.80
2022-11-12T15:27:39.597Z,9.80
2022-11-12T15:30:26.120Z,9.70
2022-11-12T15:33:08.195Z,9.60
2022-11-12T15:35:37.753Z,9.60
2022-11-12T15:38:11.755Z,9.60
2022-11-12T15:40:45.796Z,9.60
2022-11-12T15:43:18.077Z,9.60
2022-11-12T15:45:48.814Z,9.60
2022-11-12T15:48:18.977Z,9.60
2022-11-12T15:50:46.839Z,9.60
2022-11-12T15:53:16.127Z,9.60
2022-11-12T15:55:44.252Z,9.60
2022-11-12T15:58:16.316Z,9.60
2022-11-12T16:00:43.318Z,9.50
2022-11-12T16:03:14.872Z,9.50
2022-11-12T16:05:41.925Z,9.50
2022-11-12T16:08:09.108Z,9.50
2022-11-12T16:10:38.842Z,9.50
2022-11-12T16:13:11.915Z,9.50
2022-11-12T16:15:38.708Z,9.50
2022-11-12T16:18:05.601Z,9.40
2022-11-12T16:20:34.145Z,9.40
2022-11-12T16:23:01.459Z,9.30
2022-11-12T16:25:30.266Z,9.30
2022-11-12T16:28:00.889Z,9.30
2022-11-12T16:30:30.350Z,9.30
2022-11-12T16:32:57.788Z,9.30
2022-11-12T16:35:24.851Z,9.30
2022-11-12T16:37:53.451Z,9.20
2022-11-12T16:40:23.436Z,9.20
2022-11-12T16:42:50.472Z,9.20
2022-11-12T16:45:20.781Z,9.10
2022-11-12T16:47:49.258Z,9.10
2022-11-12T16:50:18.830Z,9.10
2022-11-12T16:52:45.694Z,9.00
2022-11-12T16:55:12.543Z,9.00
2022-11-12T16:57:40.359Z,9.00
2022-11-12T17:00:10.779Z,9.00
2022-11-12T17:02:44.349Z,8.90
2022-11-12T17:05:15.821Z,8.90
2022-11-12T17:07:42.737Z,8.80
2022-11-12T17:10:10.203Z,8.90
2022-11-12T17:12:37.007Z,8.90
2022-11-12T17:15:04.638Z,8.90
2022-11-12T17:17:31.494Z,8.90
2022-11-12T17:19:59.836Z,8.90
2022-11-12T17:22:26.883Z,8.90
2022-11-12T17:24:53.715Z,8.90
2022-11-12T17:27:20.497Z,8.90
2022-11-12T17:29:47.345Z,8.90
2022-11-12T17:32:14.140Z,8.90
2022-11-12T17:34:41.067Z,8.90
2022-11-12T17:37:09.209Z,8.90
2022-11-12T17:39:36.107Z,8.90
2022-11-12T17:42:02.930Z,8.90
2022-11-12T17:44:29.800Z,8.90
2022-11-12T17:46:56.600Z,9.00
2022-11-12T17:49:23.403Z,9.00
2022-11-12T17:51:50.282Z,9.00
2022-11-12T17:54:18.456Z,9.00
2022-11-12T17:56:45.276Z,9.10
2022-11-12T17:59:12.077Z,9.10
2022-11-12T18:01:39.191Z,9.10
2022-11-12T18:04:06.011Z,9.10
2022-11-12T18:06:34.707Z,9.00
2022-11-12T18:09:04.473Z,9.00
2022-11-12T18:11:41.757Z,9.00
2022-11-12T18:14:09.513Z,9.00
2022-11-12T18:16:36.724Z,9.00
2022-11-12T18:19:04.120Z,9.00
2022-11-12T18:21:30.948Z,9.00
2022-11-12T18:23:57.768Z,9.00
2022-11-12T18:26:24.623Z,9.00
2022-11-12T18:28:53.505Z,9.00
2022-11-12T18:31:21.456Z,9.00
2022-11-12T18:33:49.097Z,8.90
2022-11-12T18:36:17.992Z,8.90
2022-11-12T18:38:46.791Z,8.80
2022-11-12T18:41:15.002Z,8.80
2022-11-12T18:43:41.887Z,8.80
2022-11-12T18:46:11.339Z,8.80
2022-11-12T18:48:38.459Z,8.90
2022-11-12T18:51:07.774Z,8.90
2022-11-12T18:53:35.606Z,8.90
2022-11-12T18:56:05.319Z,8.90
2022-11-12T18:58:35.340Z,8.90
2022-11-12T19:01:03.302Z,8.90
2022-11-12T19:03:31.520Z,8.90
2022-11-12T19:05:58.948Z,8.90
2022-11-12T19:08:26.469Z,8.90
2022-11-12T19:10:58.255Z,8.80
2022-11-12T19:13:25.860Z,8.80
2022-11-12T19:15:52.961Z,8.80
2022-11-12T19:18:20.041Z,8.80
2022-11-12T19:20:48.869Z,8.80
2022-11-12T19:23:15.783Z,8.80
2022-11-12T19:25:42.652Z,8.80
2022-11-12T19:28:09.457Z,8.80
2022-11-12T19:30:36.374Z,8.80
2022-11-12T19:33:03.331Z,8.70
2022-11-12T19:35:30.197Z,8.70
2022-11-12T19:37:58.397Z,8.70
2022-11-12T19:40:25.688Z,8.70
2022-11-12T19:42:52.596Z,8.60
2022-11-12T19:45:19.415Z,8.60
2022-11-12T19:47:47.419Z,8.60
2022-11-12T19:50:14.498Z,8.60
2022-11-12T19:52:41.334Z,8.60
2022-11-12T19:55:10.263Z,8.60
2022-11-12T19:57:37.103Z,8.60
2022-11-12T20:00:05.199Z,8.50
2022-11-12T20:02:32.135Z,8.60
2022-11-12T20:04:59.024Z,8.60
2022-11-12T20:07:26.144Z,8.60
2022-11-12T20:09:57.998Z,8.50
2022-11-12T20:12:30.085Z,8.50
2022-11-12T20:14:56.991Z,8.50
2022-11-12T20:17:23.841Z,8.50
2022-11-12T20:19:50.939Z,8.40
2022-11-12T20:22:18.323Z,8.40
2022-11-12T20:24:45.150Z,8.40
2022-11-12T20:27:11.941Z,8.40
2022-11-12T20:29:40.192Z,8.40
2022-11-12T20:32:07.090Z,8.40
2022-11-12T20:34:33.933Z,8.40
2022-11-12T20:37:00.736Z,8.40
2022-11-12T20:39:27.602Z,8.40
2022-11-12T20:41:54.404Z,8.30
2022-11-12T20:44:21.320Z,8.30
2022-11-12T20:46:49.620Z,8.20
2022-11-12T20:49:16.413Z,8.10
2022-11-12T20:51:43.330Z,8.10
2022-11-12T20:54:10.586Z,8.00
2022-11-12T20:56:37.493Z,8.00
2022-11-12T20:59:04.314Z,7.90
2022-11-12T21:01:31.301Z,7.80
2022-11-12T21:03:59.768Z,7.70
2022-11-12T21:06:28.485Z,7.60
2022-11-12T21:08:58.566Z,7.60
2022-11-12T21:11:25.495Z,7.60
2022-11-12T21:13:52.321Z,7.60
2022-11-12T21:16:19.304Z,7.50
2022-11-12T21:18:46.122Z,7.60
2022-11-12T21:21:16.535Z,7.60
2022-11-12T21:23:44.584Z,7.60
2022-11-12T21:26:13.473Z,7.70
2022-11-12T21:28:43.049Z,7.60
2022-11-12T21:31:12.666Z,7.70
2022-11-12T21:33:39.758Z,7.70
2022-11-12T21:36:11.792Z,7.70
2022-11-12T21:38:43.124Z,7.60
2022-11-12T21:41:11.575Z,7.70
2022-11-12T21:43:39.261Z,7.70
2022-11-12T21:46:07.506Z,7.60
2022-11-12T21:48:34.412Z,7.60
2022-11-12T21:51:03.455Z,7.60
2022-11-12T21:53:30.237Z,7.60
2022-11-12T21:56:03.047Z,7.60
2022-11-12T21:58:30.140Z,7.60
2022-11-12T22:01:06.407Z,7.50
2022-11-12T22:03:33.528Z,7.40
2022-11-12T22:06:00.456Z,7.40
2022-11-12T22:08:27.619Z,7.30
2022-11-12T22:11:02.578Z,7.30
2022-11-12T22:13:29.787Z,7.20
2022-11-12T22:15:57.297Z,7.10
2022-11-12T22:18:24.629Z,7.10
2022-11-12T22:20:58.261Z,7.00
2022-11-12T22:23:25.557Z,7.00
2022-11-12T22:25:55.856Z,7.00
2022-11-12T22:28:24.849Z,7.00
2022-11-12T22:30:52.241Z,7.10
2022-11-12T22:33:19.269Z,7.10
2022-11-12T22:35:46.081Z,7.10
2022-11-12T22:38:13.331Z,7.10
2022-11-12T22:40:40.210Z,7.20
2022-11-12T22:43:06.988Z,7.20
2022-11-12T22:45:36.251Z,7.20
2022-11-12T22:48:03.201Z,7.20
2022-11-12T22:50:30.089Z,7.20
2022-11-12T22:52:56.877Z,7.20
2022-11-12T22:55:23.911Z,7.30
2022-11-12T22:57:50.753Z,7.30
2022-11-12T23:00:27.665Z,7.20
2022-11-12T23:02:55.833Z,7.20
2022-11-12T23:05:22.789Z,7.20
2022-11-12T23:07:50.263Z,7.20
2022-11-12T23:10:17.224Z,7.20
2022-11-12T23:12:44.007Z,7.20
2022-11-12T23:15:11.312Z,7.30
2022-11-12T23:17:38.138Z,7.30
2022-11-12T23:20:07.593Z,7.30
2022-11-12T23:22:34.424Z,7.30
2022-11-12T23:25:01.268Z,7.30
2022-11-12T23:27:28.802Z,7.30
2022-11-12T23:29:55.602Z,7.30
2022-11-12T23:32:22.402Z,7.20
2022-11-12T23:34:49.195Z,7.20
2022-11-12T23:37:17.415Z,7.20
2022-11-12T23:39:44.224Z,7.20
2022-11-12T23:42:11.006Z,7.20
2022-11-12T23:44:37.882Z,7.20
2022-11-12T23:47:04.809Z,7.20
2022-11-12T23:49:31.659Z,7.20
2022-11-12T23:51:58.451Z,7.20
2022-11-12T23:54:26.592Z,7.20
2022-11-12T23:56:53.410Z,7.20
2022-11-12T23:59:20.176Z,7.10
